Time;durP1;ratioP1;P1;durP2;ratioP2;P2;SDS_P1;SDS_P2;PMS_P1;PMS_P2;Temp;Humidity;BMP_temperature;BMP_pressure;BME280_temperature;BME280_humidity;BME280_pressure;Samples;Min_cycle;Max_cycle;Signal;HPM_P1;HPM_P2
2022/11/07 00:02:23;;;;;;;4.77;2.67;;;11.50;99.90;;;;;;5013582;28;20208;-89
2022/11/07 00:04:50;;;;;;;8.60;3.17;;;11.60;99.90;;;;;;5013472;28;20572;-93
2022/11/07 00:07:17;;;;;;;7.73;3.33;;;11.60;99.90;;;;;;5013207;28;20193;-90
2022/11/07 00:09:44;;;;;;;5.53;2.67;;;11.60;99.90;;;;;;5013658;28;20197;-82
2022/11/07 00:12:12;;;;;;;7.13;3.40;;;11.60;99.90;;;;;;5013284;28;20567;-81
2022/11/07 00:14:39;;;;;;;9.32;3.67;;;11.50;99.90;;;;;;5013018;28;20520;-75
2022/11/07 00:17:07;;;;;;;6.33;2.53;;;11.50;99.90;;;;;;5013451;28;20218;-78
2022/11/07 00:19:34;;;;;;;13.40;3.57;;;11.60;99.90;;;;;;5013244;28;20303;-77
2022/11/07 00:22:01;;;;;;;4.20;2.43;;;11.50;99.90;;;;;;5013065;28;20216;-77
2022/11/07 00:24:29;;;;;;;9.63;2.67;;;11.50;99.90;;;;;;5013005;28;20215;-80
2022/11/07 00:26:56;;;;;;;7.60;2.90;;;11.50;99.90;;;;;;5013025;28;20220;-79
2022/11/07 00:29:24;;;;;;;5.73;2.87;;;11.50;99.90;;;;;;5013265;28;20216;-88
2022/11/07 00:31:51;;;;;;;12.00;3.37;;;11.60;99.90;;;;;;5013164;28;20241;-92
2022/11/07 00:34:19;;;;;;;9.17;3.20;;;11.70;99.90;;;;;;5013407;28;20654;-94
2022/11/07 00:36:46;;;;;;;7.73;2.57;;;11.60;99.90;;;;;;5014400;28;20591;-78
2022/11/07 00:39:13;;;;;;;7.40;2.57;;;11.70;99.90;;;;;;5016638;28;20559;-77
2022/11/07 00:41:40;;;;;;;9.30;2.70;;;11.70;99.90;;;;;;5016516;28;20213;-78
2022/11/07 00:44:07;;;;;;;8.13;2.70;;;11.80;99.90;;;;;;5016325;28;20216;-86
2022/11/07 00:46:38;;;;;;;12.97;2.83;;;11.80;99.90;;;;;;5016272;28;20212;-93
2022/11/07 00:49:05;;;;;;;11.63;2.97;;;11.90;99.90;;;;;;5016381;28;20765;-91
2022/11/07 00:51:32;;;;;;;10.67;2.63;;;11.80;99.90;;;;;;5016508;28;20193;-76
2022/11/07 00:53:59;;;;;;;6.30;2.43;;;11.80;99.90;;;;;;5015965;28;20232;-92
2022/11/07 00:56:25;;;;;;;8.83;2.67;;;11.80;99.90;;;;;;5016176;28;20240;-76
2022/11/07 00:58:56;;;;;;;10.17;2.60;;;11.90;99.90;;;;;;5016028;28;20231;-77
2022/11/07 01:01:25;;;;;;;8.63;2.73;;;12.00;99.90;;;;;;5015924;28;20207;-76
2022/11/07 01:06:40;;;;;;;8.83;2.27;;;12.00;99.90;;;;;;5015565;28;20204;-85
2022/11/07 01:09:08;;;;;;;15.33;2.60;;;12.10;99.90;;;;;;5015746;28;20664;-78
2022/11/07 01:11:35;;;;;;;10.90;2.53;;;12.10;99.90;;;;;;5015270;28;20216;-78
2022/11/07 01:14:03;;;;;;;11.83;2.63;;;12.00;99.90;;;;;;5015481;28;20214;-77
2022/11/07 01:16:34;;;;;;;8.77;2.50;;;12.10;99.90;;;;;;5015545;28;20226;-78
2022/11/07 01:19:03;;;;;;;13.40;3.57;;;12.00;99.90;;;;;;5015410;28;20208;-76
2022/11/07 01:21:30;;;;;;;13.57;3.07;;;12.10;99.90;;;;;;5015485;28;20201;-76
2022/11/07 01:23:59;;;;;;;7.77;2.40;;;12.10;99.90;;;;;;5015679;28;20212;-84
2022/11/07 01:26:26;;;;;;;10.40;2.73;;;12.10;99.90;;;;;;5015582;28;20256;-78
2022/11/07 01:28:53;;;;;;;12.83;2.67;;;12.10;99.90;;;;;;5015119;28;20684;-76
2022/11/07 01:31:19;;;;;;;8.53;2.27;;;12.20;99.90;;;;;;5015338;28;20217;-77
2022/11/07 01:33:47;;;;;;;8.60;2.37;;;12.20;99.90;;;;;;5015214;28;20665;-85
2022/11/07 01:36:17;;;;;;;9.77;2.90;;;12.20;99.90;;;;;;5015109;28;20233;-79
2022/11/07 01:38:47;;;;;;;9.87;2.23;;;12.20;99.90;;;;;;5015246;28;20239;-78
2022/11/07 01:41:24;;;;;;;14.13;2.97;;;12.20;99.90;;;;;;5015015;28;20250;-76
2022/11/07 01:43:54;;;;;;;11.50;2.67;;;12.20;99.90;;;;;;5015373;28;20209;-81
2022/11/07 01:46:24;;;;;;;12.03;2.53;;;12.20;99.90;;;;;;5015203;28;20210;-76
2022/11/07 01:48:54;;;;;;;7.37;2.73;;;12.20;99.90;;;;;;5014015;28;20716;-82
2022/11/07 01:51:24;;;;;;;10.00;2.47;;;12.20;99.90;;;;;;5014975;28;20688;-84
2022/11/07 01:53:53;;;;;;;12.03;3.43;;;12.20;99.90;;;;;;5015166;28;20236;-89
2022/11/07 01:56:25;;;;;;;9.60;2.40;;;12.20;99.90;;;;;;5015012;28;20222;-89
2022/11/07 01:58:53;;;;;;;9.43;2.63;;;12.20;99.90;;;;;;5015232;28;20200;-84
2022/11/07 02:01:22;;;;;;;13.47;2.33;;;12.20;99.90;;;;;;5015264;28;20204;-81
2022/11/07 02:03:52;;;;;;;10.37;2.67;;;12.20;99.90;;;;;;5014880;28;20580;-78
2022/11/07 02:06:26;;;;;;;16.03;2.77;;;12.20;99.90;;;;;;5015443;28;20293;-79
2022/11/07 02:08:53;;;;;;;7.77;2.30;;;12.20;99.90;;;;;;5015479;28;20212;-93
2022/11/07 02:11:21;;;;;;;12.27;3.07;;;12.20;99.90;;;;;;5016435;28;20601;-83
2022/11/07 02:13:47;;;;;;;10.77;2.70;;;12.20;99.90;;;;;;5016359;28;20209;-91
2022/11/07 02:16:15;;;;;;;10.60;2.83;;;12.20;99.90;;;;;;5015590;28;20195;-94
2022/11/07 02:18:44;;;;;;;14.67;2.63;;;12.30;99.90;;;;;;5014484;28;20211;-76
2022/11/07 02:21:34;;;;;;;13.63;2.67;;;12.30;99.90;;;;;;5014879;28;20207;-78
2022/11/07 02:24:11;;;;;;;8.33;2.17;;;12.30;99.90;;;;;;5014169;28;20260;-77
2022/11/07 02:26:40;;;;;;;14.67;3.47;;;12.30;99.90;;;;;;5014733;28;20210;-76
2022/11/07 02:29:10;;;;;;;11.70;2.57;;;12.30;99.90;;;;;;5014345;28;20581;-77
2022/11/07 02:31:36;;;;;;;12.13;2.90;;;12.30;99.90;;;;;;5014472;28;20241;-76
2022/11/07 02:34:03;;;;;;;14.60;3.20;;;12.40;99.90;;;;;;5014496;28;20229;-77
2022/11/07 02:36:30;;;;;;;9.30;2.83;;;12.40;99.90;;;;;;5014654;28;20218;-78
2022/11/07 02:38:59;;;;;;;11.57;3.27;;;12.40;99.90;;;;;;5014871;28;20217;-80
2022/11/07 02:41:31;;;;;;;9.00;2.90;;;12.30;99.90;;;;;;5014227;28;20213;-86
2022/11/07 02:44:02;;;;;;;12.57;2.77;;;12.40;99.90;;;;;;5015627;28;20206;-81
2022/11/07 02:46:30;;;;;;;14.50;3.60;;;12.40;99.90;;;;;;5014005;28;20525;-86
2022/11/07 02:48:59;;;;;;;11.97;2.73;;;12.50;99.90;;;;;;5015411;28;20577;-79
2022/11/07 02:51:27;;;;;;;16.77;3.27;;;12.50;99.90;;;;;;5015587;28;20203;-77
2022/11/07 02:53:54;;;;;;;12.57;2.63;;;12.50;99.90;;;;;;5014169;28;20203;-92
2022/11/07 02:56:21;;;;;;;12.20;3.13;;;12.50;99.90;;;;;;5014016;28;20195;-75
2022/11/07 02:58:51;;;;;;;11.47;2.47;;;12.50;99.90;;;;;;5013329;28;20202;-76
2022/11/07 03:01:18;;;;;;;13.23;3.23;;;12.50;99.90;;;;;;5013013;28;20201;-76
2022/11/07 03:03:47;;;;;;;16.67;2.70;;;12.50;99.90;;;;;;5013811;28;20229;-76
2022/11/07 03:06:16;;;;;;;8.03;2.53;;;12.40;99.90;;;;;;5013655;28;20210;-77
2022/11/07 03:08:43;;;;;;;10.73;2.87;;;12.40;99.90;;;;;;5013586;28;20665;-79
2022/11/07 03:11:11;;;;;;;10.83;3.33;;;12.40;99.90;;;;;;5013317;28;20210;-77
2022/11/07 03:13:38;;;;;;;14.43;2.53;;;12.50;99.90;;;;;;5013126;28;20217;-76
2022/11/07 03:16:08;;;;;;;13.10;2.20;;;12.40;99.90;;;;;;5013114;28;20211;-76
2022/11/07 03:18:36;;;;;;;9.57;2.30;;;12.40;99.90;;;;;;5013263;28;20630;-78
2022/11/07 03:21:03;;;;;;;12.83;3.07;;;12.30;99.90;;;;;;5013526;28;20191;-77
2022/11/07 03:23:30;;;;;;;15.17;3.07;;;12.30;99.90;;;;;;5013715;28;20202;-78
2022/11/07 03:25:57;;;;;;;12.37;2.97;;;12.30;99.90;;;;;;5013408;28;20209;-77
2022/11/07 03:28:24;;;;;;;12.37;3.00;;;12.30;99.90;;;;;;5013377;28;20218;-78
2022/11/07 03:30:52;;;;;;;13.03;3.07;;;12.40;99.90;;;;;;5013086;28;20194;-77
2022/11/07 03:33:20;;;;;;;10.40;2.40;;;12.30;99.90;;;;;;5013429;28;20209;-77
2022/11/07 03:35:47;;;;;;;11.77;2.83;;;12.30;99.90;;;;;;5012950;28;20642;-77
2022/11/07 03:38:14;;;;;;;15.03;3.30;;;12.30;99.90;;;;;;5013202;28;20234;-76
2022/11/07 03:40:41;;;;;;;14.50;3.00;;;12.40;99.90;;;;;;5013061;28;20221;-79
2022/11/07 03:43:07;;;;;;;14.63;2.90;;;12.40;99.90;;;;;;5013058;28;20210;-85
2022/11/07 03:45:35;;;;;;;15.87;2.90;;;12.40;99.90;;;;;;5013020;28;20215;-75
2022/11/07 03:48:02;;;;;;;10.40;2.40;;;12.40;99.90;;;;;;5013274;28;20646;-78
2022/11/07 03:50:30;;;;;;;12.23;3.03;;;12.50;99.90;;;;;;5012924;28;20230;-76
2022/11/07 03:52:57;;;;;;;13.20;2.87;;;12.40;99.90;;;;;;5013481;28;20209;-82
2022/11/07 03:55:23;;;;;;;13.20;3.00;;;12.40;99.90;;;;;;5013503;28;20269;-93
2022/11/07 03:57:50;;;;;;;13.17;2.87;;;12.50;99.90;;;;;;5013627;28;20235;-92
2022/11/07 04:00:17;;;;;;;10.80;2.50;;;12.40;99.90;;;;;;5013542;28;20214;-78
2022/11/07 04:02:44;;;;;;;15.07;2.80;;;12.50;99.90;;;;;;5013352;28;20688;-78
2022/11/07 04:05:11;;;;;;;12.17;2.60;;;12.50;99.90;;;;;;5013420;28;20212;-78
2022/11/07 04:07:39;;;;;;;15.80;3.60;;;12.50;99.90;;;;;;5013434;28;20666;-79
2022/11/07 04:10:07;;;;;;;13.33;3.03;;;12.50;99.90;;;;;;5013643;28;20198;-76
2022/11/07 04:18:04;;;;;;;15.27;2.77;;;12.60;99.90;;;;;;5017224;28;20225;-81
2022/11/07 04:20:31;;;;;;;13.83;2.93;;;12.60;99.90;;;;;;5017151;28;20206;-92
2022/11/07 04:22:59;;;;;;;15.77;3.40;;;12.60;99.90;;;;;;5019653;28;20207;-92
2022/11/07 04:28:06;;;;;;;11.33;3.13;;;12.60;99.90;;;;;;5026680;28;20292;-78
2022/11/07 04:30:33;;;;;;;14.90;2.40;;;12.70;99.90;;;;;;5023502;28;20217;-89
2022/11/07 04:33:01;;;;;;;15.53;3.10;;;12.60;99.90;;;;;;5023151;28;20587;-76
2022/11/07 04:35:31;;;;;;;12.17;2.60;;;12.60;99.90;;;;;;5016383;28;20264;-89
2022/11/07 04:37:59;;;;;;;9.60;2.63;;;12.60;99.90;;;;;;5028367;28;20274;-82
2022/11/07 04:40:27;;;;;;;14.10;2.83;;;12.60;99.90;;;;;;5031329;28;20211;-88
2022/11/07 04:42:54;;;;;;;17.40;4.23;;;12.60;99.90;;;;;;5015813;28;20207;-85
2022/11/07 04:45:21;;;;;;;12.10;3.17;;;12.60;99.90;;;;;;5015959;28;20214;-92
2022/11/07 04:47:48;;;;;;;14.10;2.83;;;12.50;99.90;;;;;;5016348;28;20627;-77
2022/11/07 04:50:18;;;;;;;15.00;3.37;;;12.50;99.90;;;;;;5016076;28;20231;-76
2022/11/07 04:52:45;;;;;;;11.73;3.10;;;12.50;99.90;;;;;;5024103;28;20202;-77
2022/11/07 04:55:20;;;;;;;9.87;2.10;;;12.50;99.90;;;;;;5021692;28;20583;-77
2022/11/07 04:57:47;;;;;;;13.77;3.03;;;12.50;99.90;;;;;;5015138;28;20230;-76
2022/11/07 05:00:15;;;;;;;11.57;2.50;;;12.50;99.90;;;;;;5015883;28;20210;-75
2022/11/07 05:02:42;;;;;;;17.20;3.20;;;12.50;99.90;;;;;;5015733;28;20212;-77
2022/11/07 05:05:09;;;;;;;19.13;3.40;;;12.60;99.90;;;;;;5015751;28;20203;-76
2022/11/07 05:07:36;;;;;;;12.90;2.97;;;12.70;99.90;;;;;;5015792;28;20200;-76
2022/11/07 05:10:04;;;;;;;9.93;2.40;;;12.70;99.90;;;;;;5015512;28;20676;-78
2022/11/07 05:12:32;;;;;;;16.23;3.30;;;12.60;99.90;;;;;;5015133;28;20214;-77
2022/11/07 05:14:59;;;;;;;15.00;3.23;;;12.60;99.90;;;;;;5016792;28;20719;-77
2022/11/07 05:17:26;;;;;;;15.33;3.23;;;12.60;99.90;;;;;;5030726;28;20241;-76
2022/11/07 05:19:53;;;;;;;11.10;2.97;;;12.60;99.90;;;;;;5042248;28;20238;-77
2022/11/07 05:25:05;;;;;;;15.83;3.00;;;12.80;99.90;;;;;;5022360;28;20214;-76
2022/11/07 05:27:33;;;;;;;14.57;2.93;;;12.70;99.90;;;;;;5021804;28;20208;-77
2022/11/07 05:30:00;;;;;;;10.60;2.40;;;12.80;99.90;;;;;;5026193;28;20658;-82
2022/11/07 05:32:27;;;;;;;11.83;3.10;;;12.80;99.90;;;;;;5024290;28;20210;-76
2022/11/07 05:34:54;;;;;;;16.27;3.20;;;12.80;99.90;;;;;;5015319;28;20674;-78
2022/11/07 05:37:22;;;;;;;15.90;3.50;;;12.80;99.90;;;;;;5015214;28;20261;-79
2022/11/07 05:39:49;;;;;;;13.87;2.77;;;12.80;99.90;;;;;;5015548;28;20214;-79
2022/11/07 05:42:16;;;;;;;11.60;2.60;;;12.80;99.90;;;;;;5015205;28;20221;-79
2022/11/07 05:44:44;;;;;;;13.73;3.20;;;12.80;99.90;;;;;;5014842;28;20211;-77
2022/11/07 05:47:11;;;;;;;14.70;3.15;;;12.80;99.90;;;;;;5015148;28;20441;-77
2022/11/07 05:49:38;;;;;;;13.83;3.20;;;12.70;99.90;;;;;;5014507;28;20237;-76
2022/11/07 05:52:05;;;;;;;10.10;3.00;;;12.70;99.90;;;;;;5014845;28;20195;-76
2022/11/07 05:54:32;;;;;;;15.37;2.83;;;12.80;99.90;;;;;;5025483;28;20561;-77
2022/11/07 05:56:59;;;;;;;15.27;3.37;;;12.70;99.90;;;;;;5017771;28;20198;-76
2022/11/07 05:59:26;;;;;;;16.80;2.97;;;12.70;99.90;;;;;;5014378;28;20682;-93
2022/11/07 06:01:54;;;;;;;15.43;3.03;;;12.70;99.90;;;;;;5014560;28;20686;-76
2022/11/07 06:04:21;;;;;;;15.37;2.87;;;12.60;99.90;;;;;;5014192;28;20211;-85
2022/11/07 06:06:48;;;;;;;11.03;2.60;;;12.60;99.90;;;;;;5014959;28;20633;-76
2022/11/07 06:09:14;;;;;;;18.57;3.20;;;12.50;99.90;;;;;;5013781;28;20210;-77
2022/11/07 06:11:41;;;;;;;12.00;2.70;;;12.50;99.90;;;;;;5014804;28;20219;-77
2022/11/07 06:14:08;;;;;;;10.17;2.30;;;12.50;99.90;;;;;;5014213;28;20221;-78
2022/11/07 06:16:35;;;;;;;14.00;2.50;;;12.50;99.90;;;;;;5014154;28;20210;-78
2022/11/07 06:19:03;;;;;;;12.07;2.93;;;12.40;99.90;;;;;;5013860;28;20308;-78
2022/11/07 06:21:31;;;;;;;17.10;2.70;;;12.50;99.90;;;;;;5014109;28;20658;-76
2022/11/07 06:23:58;;;;;;;14.37;2.97;;;12.40;99.90;;;;;;5014719;28;20210;-77
2022/11/07 06:26:25;;;;;;;10.47;2.33;;;12.40;99.90;;;;;;5026450;28;20237;-78
2022/11/07 06:28:52;;;;;;;11.30;2.80;;;12.40;99.90;;;;;;5014171;28;20214;-77
2022/11/07 06:31:19;;;;;;;14.67;2.97;;;12.40;99.90;;;;;;5013805;28;20688;-79
2022/11/07 06:33:46;;;;;;;15.30;4.23;;;12.40;99.90;;;;;;5013814;28;20676;-77
2022/11/07 06:36:14;;;;;;;15.40;3.00;;;12.40;99.90;;;;;;5014060;28;20218;-77
2022/11/07 06:38:41;;;;;;;11.90;2.30;;;12.40;99.90;;;;;;5019995;28;20772;-78
2022/11/07 06:41:11;;;;;;;12.23;2.53;;;12.40;99.90;;;;;;5020903;28;20665;-78
2022/11/07 06:43:38;;;;;;;15.73;3.00;;;12.40;99.90;;;;;;5018803;28;20213;-82
2022/11/07 06:46:07;;;;;;;16.67;3.00;;;12.40;99.90;;;;;;5022319;28;20662;-78
2022/11/07 06:48:34;;;;;;;13.13;3.17;;;12.30;99.90;;;;;;5013715;28;20202;-77
2022/11/07 06:51:03;;;;;;;11.60;3.70;;;12.30;99.90;;;;;;5013777;28;20579;-79
2022/11/07 06:53:31;;;;;;;14.50;2.60;;;12.30;99.90;;;;;;5027002;28;20226;-78
2022/11/07 06:56:00;;;;;;;12.27;2.47;;;12.30;99.90;;;;;;5013409;28;20663;-77
2022/11/07 06:58:27;;;;;;;15.17;3.27;;;12.30;99.90;;;;;;5020467;28;20225;-78
2022/11/07 07:00:57;;;;;;;13.93;2.87;;;12.30;99.90;;;;;;5027591;28;20208;-76
2022/11/07 07:03:24;;;;;;;13.97;2.43;;;12.30;99.90;;;;;;5024398;28;20212;-80
2022/11/07 07:05:51;;;;;;;13.73;2.93;;;12.30;99.90;;;;;;5027923;28;20205;-77
2022/11/07 07:08:18;;;;;;;16.10;3.20;;;12.30;99.90;;;;;;5028974;28;20204;-76
2022/11/07 07:10:46;;;;;;;14.40;2.63;;;12.40;99.90;;;;;;5030420;28;20208;-77
2022/11/07 07:13:14;;;;;;;20.93;3.00;;;12.40;99.90;;;;;;5035387;28;20605;-75
2022/11/07 07:15:41;;;;;;;17.87;3.27;;;12.40;99.90;;;;;;5029946;28;20583;-81
2022/11/07 07:18:08;;;;;;;16.85;3.17;;;12.40;99.90;;;;;;5027163;28;20459;-80
2022/11/07 07:20:35;;;;;;;11.27;2.93;;;12.40;99.90;;;;;;5030220;28;20212;-78
2022/11/07 07:23:02;;;;;;;17.70;3.47;;;12.50;99.90;;;;;;5032418;28;20209;-76
2022/11/07 07:25:29;;;;;;;12.30;3.10;;;12.50;99.90;;;;;;5032403;28;20660;-75
2022/11/07 07:27:57;;;;;;;11.13;2.53;;;12.50;99.90;;;;;;5029178;28;20205;-77
2022/11/07 07:30:24;;;;;;;12.33;3.33;;;12.50;99.90;;;;;;5031166;28;20202;-77
2022/11/07 07:32:50;;;;;;;16.43;3.40;;;12.50;99.90;;;;;;5029941;28;20198;-77
2022/11/07 07:35:17;;;;;;;15.17;3.30;;;12.50;99.90;;;;;;5030205;28;20214;-77
2022/11/07 07:37:48;;;;;;;14.23;3.10;;;12.50;99.90;;;;;;5032516;28;20209;-76
2022/11/07 07:40:15;;;;;;;17.07;3.47;;;12.60;99.90;;;;;;5031493;28;20646;-78
2022/11/07 07:42:43;;;;;;;13.30;2.77;;;12.60;99.90;;;;;;5028018;28;20211;-79
2022/11/07 07:45:12;;;;;;;20.03;3.07;;;12.70;99.90;;;;;;5026955;28;20206;-78
2022/11/07 07:47:41;;;;;;;16.33;3.20;;;12.70;99.90;;;;;;5019544;28;20206;-78
2022/11/07 07:50:09;;;;;;;13.73;3.30;;;12.80;99.90;;;;;;5017230;28;20240;-86
2022/11/07 07:52:36;;;;;;;17.03;3.13;;;12.80;99.90;;;;;;5016435;28;20567;-81
2022/11/07 07:55:03;;;;;;;8.67;3.13;;;12.80;99.90;;;;;;5017334;28;20207;-90
2022/11/07 07:57:30;;;;;;;16.87;3.60;;;12.90;99.90;;;;;;5016664;28;20241;-78
2022/11/07 07:59:57;;;;;;;11.47;3.37;;;13.00;99.90;;;;;;5030831;28;20240;-77
2022/11/07 08:02:25;;;;;;;11.50;3.80;;;13.00;99.90;;;;;;5036153;28;20203;-78
2022/11/07 08:04:53;;;;;;;9.27;2.47;;;13.10;99.90;;;;;;5036608;28;20209;-83
2022/11/07 08:07:20;;;;;;;13.37;2.80;;;13.10;99.90;;;;;;5038448;28;20221;-77
2022/11/07 08:09:46;;;;;;;14.30;3.10;;;13.20;99.90;;;;;;5036563;28;20206;-77
2022/11/07 08:12:13;;;;;;;8.07;2.43;;;13.20;99.90;;;;;;5028516;28;20207;-75
2022/11/07 08:14:40;;;;;;;14.90;3.47;;;13.20;99.90;;;;;;5016621;28;20222;-80
2022/11/07 08:17:07;;;;;;;11.27;2.33;;;13.30;99.90;;;;;;5030537;28;20207;-78
2022/11/07 08:19:35;;;;;;;13.20;2.93;;;13.30;99.90;;;;;;5016201;28;20229;-77
2022/11/07 08:22:02;;;;;;;12.90;2.73;;;13.40;99.90;;;;;;5024335;28;20203;-78
2022/11/07 08:24:28;;;;;;;15.50;3.30;;;13.40;99.90;;;;;;5016281;28;20202;-75
2022/11/07 08:26:56;;;;;;;15.07;3.37;;;13.40;99.90;;;;;;5016224;28;20211;-84
2022/11/07 08:29:22;;;;;;;21.73;8.20;;;13.40;99.90;;;;;;5016546;28;20195;-89
2022/11/07 08:31:50;;;;;;;14.73;3.17;;;13.40;99.90;;;;;;5016413;28;20565;-76
2022/11/07 08:34:17;;;;;;;14.90;3.17;;;13.40;99.90;;;;;;5015822;28;20216;-76
2022/11/07 08:36:45;;;;;;;15.80;3.47;;;13.50;99.90;;;;;;5015827;28;20720;-81
2022/11/07 08:39:12;;;;;;;11.63;2.53;;;13.50;99.90;;;;;;5018806;28;20227;-76
2022/11/07 08:41:39;;;;;;;13.43;2.67;;;13.50;99.90;;;;;;5027221;28;20226;-76
2022/11/07 08:44:07;;;;;;;10.77;2.60;;;13.50;99.90;;;;;;5016342;28;20290;-78
2022/11/07 08:46:33;;;;;;;14.40;3.17;;;13.50;99.90;;;;;;5015971;28;20207;-77
2022/11/07 08:49:00;;;;;;;8.97;2.37;;;13.60;99.90;;;;;;5015554;28;20228;-77
2022/11/07 08:51:27;;;;;;;12.77;2.63;;;13.70;99.90;;;;;;5015851;28;20200;-77
2022/11/07 08:53:55;;;;;;;15.77;3.30;;;13.70;99.90;;;;;;5015783;28;20674;-77
2022/11/07 08:56:22;;;;;;;11.70;3.13;;;13.70;99.90;;;;;;5015881;28;20203;-78
2022/11/07 08:58:49;;;;;;;15.00;3.27;;;13.70;99.90;;;;;;5015393;28;20242;-77
2022/11/07 09:01:15;;;;;;;13.67;2.63;;;13.80;99.90;;;;;;5016164;28;20207;-76
2022/11/07 09:03:42;;;;;;;11.77;3.20;;;13.80;99.90;;;;;;5015164;28;20214;-77
2022/11/07 09:06:09;;;;;;;16.83;3.90;;;13.90;99.90;;;;;;5015831;28;20208;-76
2022/11/07 09:08:36;;;;;;;13.13;3.33;;;13.90;99.90;;;;;;5015698;28;20207;-79
2022/11/07 09:11:05;;;;;;;15.70;3.40;;;14.00;99.90;;;;;;5015736;28;20204;-81
2022/11/07 09:13:32;;;;;;;16.63;3.80;;;14.00;99.90;;;;;;5020633;28;20222;-76
2022/11/07 09:16:00;;;;;;;13.90;3.20;;;14.10;99.90;;;;;;5031154;28;20662;-82
2022/11/07 09:18:27;;;;;;;12.00;3.10;;;14.10;99.90;;;;;;5021507;28;20231;-80
2022/11/07 09:20:54;;;;;;;9.10;2.60;;;14.10;99.90;;;;;;5015587;28;20211;-77
2022/11/07 09:23:21;;;;;;;13.37;3.77;;;14.10;99.90;;;;;;5015611;28;20204;-80
2022/11/07 09:25:48;;;;;;;11.77;2.93;;;14.10;99.90;;;;;;5015418;28;20211;-84
2022/11/07 09:28:16;;;;;;;13.60;2.97;;;14.20;99.90;;;;;;5015663;28;20196;-76
2022/11/07 09:30:43;;;;;;;15.57;3.10;;;14.20;99.90;;;;;;5014889;28;20204;-77
2022/11/07 09:33:10;;;;;;;12.17;2.97;;;14.30;99.90;;;;;;5020063;28;20207;-79
2022/11/07 09:35:37;;;;;;;13.40;3.30;;;14.30;99.90;;;;;;5034511;28;20654;-78
2022/11/07 09:38:03;;;;;;;18.80;2.97;;;14.40;99.90;;;;;;5034607;28;20210;-79
2022/11/07 09:40:40;;;;;;;9.43;2.83;;;14.40;99.90;;;;;;5031575;28;20233;-78
2022/11/07 09:43:30;;;;;;;14.23;4.10;;;14.30;99.90;;;;;;5029913;28;20199;-79
2022/11/07 09:46:04;;;;;;;11.40;2.87;;;14.30;99.90;;;;;;5037248;28;20200;-78
2022/11/07 09:48:39;;;;;;;16.57;3.17;;;14.30;99.90;;;;;;5034432;28;20195;-81
2022/11/07 09:51:12;;;;;;;17.38;4.00;;;14.40;99.90;;;;;;5033575;28;20431;-79
2022/11/07 09:53:44;;;;;;;12.97;3.20;;;14.60;99.90;;;;;;5033964;28;20207;-80
2022/11/07 09:56:12;;;;;;;14.10;3.43;;;14.60;99.90;;;;;;5034508;28;20195;-83
2022/11/07 09:58:44;;;;;;;12.27;3.40;;;14.60;99.90;;;;;;5034106;28;20227;-78
2022/11/07 10:01:14;;;;;;;15.97;3.43;;;14.60;99.90;;;;;;5036895;28;20293;-80
2022/11/07 10:03:41;;;;;;;9.93;2.90;;;14.70;99.90;;;;;;5036752;28;20199;-78
2022/11/07 10:06:15;;;;;;;18.23;2.90;;;14.70;99.90;;;;;;5033984;28;20207;-84
2022/11/07 10:08:50;;;;;;;15.97;3.13;;;14.70;99.90;;;;;;5033800;28;20202;-76
2022/11/07 10:11:33;;;;;;;16.57;3.67;;;14.70;99.90;;;;;;5019691;28;20199;-82
2022/11/07 10:14:08;;;;;;;12.07;2.97;;;14.70;99.90;;;;;;5033781;28;20226;-81
2022/11/07 10:16:57;;;;;;;11.27;3.07;;;14.60;99.90;;;;;;5028494;28;20209;-77
2022/11/07 10:19:39;;;;;;;11.95;3.22;;;14.60;99.90;;;;;;5026192;28;20480;-77
2022/11/07 10:22:16;;;;;;;14.63;2.67;;;14.60;99.90;;;;;;5014613;28;20196;-77
2022/11/07 10:24:59;;;;;;;18.07;2.83;;;14.60;99.90;;;;;;5014126;28;20199;-79
2022/11/07 10:27:27;;;;;;;11.57;2.60;;;14.60;99.90;;;;;;5014308;28;20659;-87
2022/11/07 10:29:55;;;;;;;13.37;3.03;;;14.60;99.90;;;;;;5014352;28;20211;-90
2022/11/07 10:32:26;;;;;;;11.73;3.00;;;14.70;99.90;;;;;;5026846;28;20199;-77
2022/11/07 10:35:14;;;;;;;13.37;3.13;;;14.80;99.90;;;;;;5022751;28;20215;-86
2022/11/07 10:37:41;;;;;;;11.73;2.87;;;14.80;99.90;;;;;;5014147;28;20587;-79
2022/11/07 10:40:16;;;;;;;10.53;3.00;;;14.80;99.90;;;;;;5014258;28;20572;-79
2022/11/07 10:42:45;;;;;;;10.93;3.20;;;14.80;99.90;;;;;;5014086;28;20203;-79
2022/11/07 10:45:15;;;;;;;11.23;3.37;;;14.90;99.90;;;;;;5014039;28;20204;-78
2022/11/07 10:47:43;;;;;;;14.57;2.93;;;15.00;99.90;;;;;;5024095;28;20203;-79
2022/11/07 10:50:19;;;;;;;14.90;3.35;;;15.10;99.90;;;;;;5032019;28;20921;-80
2022/11/07 10:52:53;;;;;;;10.50;2.70;;;15.20;99.90;;;;;;5032948;28;20219;-80
2022/11/07 10:55:20;;;;;;;7.17;2.43;;;15.30;99.90;;;;;;5032765;28;20630;-81
2022/11/07 10:57:51;;;;;;;12.83;2.53;;;15.30;99.90;;;;;;5033163;28;20203;-80
2022/11/07 11:00:25;;;;;;;8.80;2.67;;;15.30;99.90;;;;;;5032851;28;20235;-79
2022/11/07 11:02:55;;;;;;;8.80;2.10;;;15.30;99.90;;;;;;5013756;28;20198;-76
2022/11/07 11:05:25;;;;;;;7.77;2.43;;;15.30;99.90;;;;;;5013903;28;20290;-79
2022/11/07 11:07:54;;;;;;;6.97;2.33;;;15.30;99.90;;;;;;5013347;28;20683;-77
2022/11/07 11:10:22;;;;;;;10.80;2.40;;;15.30;99.90;;;;;;5013740;28;20213;-80
2022/11/07 11:12:50;;;;;;;8.77;2.70;;;15.30;99.90;;;;;;5012859;28;20202;-77
2022/11/07 11:15:19;;;;;;;5.80;2.37;;;15.40;99.90;;;;;;5014643;28;20209;-78
2022/11/07 11:17:56;;;;;;;10.83;3.07;;;15.40;99.90;;;;;;5025616;28;20212;-79
2022/11/07 11:20:31;;;;;;;9.53;2.50;;;15.50;99.90;;;;;;5019720;28;20241;-77
2022/11/07 11:22:59;;;;;;;9.43;2.30;;;15.40;99.90;;;;;;5023449;28;20206;-77
2022/11/07 11:25:26;;;;;;;11.10;2.53;;;15.40;99.90;;;;;;5023526;28;20208;-77
2022/11/07 11:27:58;;;;;;;12.60;2.53;;;15.30;99.90;;;;;;5029608;28;20200;-76
2022/11/07 11:30:25;;;;;;;12.13;2.30;;;15.30;99.90;;;;;;5023212;28;20229;-76
2022/11/07 11:33:04;;;;;;;7.23;2.37;;;15.30;99.90;;;;;;5021900;28;20675;-76
2022/11/07 11:35:38;;;;;;;7.47;2.10;;;15.30;99.90;;;;;;5016265;28;20217;-78
2022/11/07 11:38:14;;;;;;;8.13;2.30;;;15.30;99.90;;;;;;5013157;28;20233;-76
2022/11/07 11:40:46;;;;;;;11.77;2.03;;;15.40;99.90;;;;;;5016105;28;20223;-76
2022/11/07 11:43:20;;;;;;;11.73;2.70;;;15.40;99.90;;;;;;5022778;28;20214;-77
2022/11/07 11:46:02;;;;;;;10.33;2.57;;;15.30;99.90;;;;;;5013040;28;20209;-76
2022/11/07 11:48:34;;;;;;;9.60;2.20;;;15.40;99.90;;;;;;5013142;28;20580;-78
2022/11/07 11:51:06;;;;;;;10.50;3.03;;;15.40;99.90;;;;;;5013103;28;20210;-89
2022/11/07 11:53:33;;;;;;;13.13;2.97;;;15.50;99.90;;;;;;5013066;28;20586;-77
2022/11/07 11:56:30;;;;;;;10.30;2.50;;;15.30;99.90;;;;;;5012832;28;20572;-77
2022/11/07 11:59:19;;;;;;;7.87;2.27;;;15.30;99.90;;;;;;5021986;28;20214;-78
2022/11/07 12:01:56;;;;;;;11.23;2.20;;;15.30;99.90;;;;;;5013306;28;20204;-76
2022/11/07 12:04:40;;;;;;;9.73;2.40;;;15.20;99.90;;;;;;5012911;28;20206;-76
2022/11/07 12:07:24;;;;;;;9.37;2.07;;;15.20;99.90;;;;;;5013227;28;20208;-76
2022/11/07 12:09:59;;;;;;;10.50;2.33;;;15.20;99.90;;;;;;5012698;28;20658;-77
2022/11/07 12:12:31;;;;;;;7.53;2.47;;;15.30;99.90;;;;;;5024344;28;20586;-76
2022/11/07 12:15:33;;;;;;;9.53;2.47;;;15.40;99.90;;;;;;5013788;28;20239;-76
2022/11/07 12:18:07;;;;;;;8.97;2.50;;;15.40;99.90;;;;;;5007447;28;20580;-76
2022/11/07 12:20:45;;;;;;;8.33;2.80;;;15.50;99.90;;;;;;5012711;28;20689;-77
2022/11/07 12:23:25;;;;;;;9.87;3.10;;;15.50;99.90;;;;;;5012708;28;20206;-75
2022/11/07 12:26:01;;;;;;;7.87;2.73;;;15.50;99.90;;;;;;5013112;28;20203;-78
2022/11/07 12:28:40;;;;;;;9.07;2.43;;;15.50;99.90;;;;;;5012832;28;20223;-76
2022/11/07 12:31:20;;;;;;;11.80;2.53;;;15.50;99.90;;;;;;5012948;28;20206;-76
2022/11/07 12:33:52;;;;;;;7.00;2.33;;;15.60;99.90;;;;;;5031368;28;20668;-77
2022/11/07 12:36:33;;;;;;;12.80;2.50;;;15.70;99.90;;;;;;5016550;28;20222;-76
2022/11/07 12:39:27;;;;;;;9.17;2.77;;;15.70;99.90;;;;;;5016566;28;20216;-77
2022/11/07 12:41:58;;;;;;;7.37;2.30;;;15.70;99.90;;;;;;5012598;28;20206;-76
2022/11/07 12:44:45;;;;;;;12.83;2.80;;;15.70;99.90;;;;;;5016524;28;20207;-80
2022/11/07 12:47:25;;;;;;;9.33;2.53;;;15.70;99.90;;;;;;5015478;28;20199;-76
2022/11/07 12:50:04;;;;;;;11.18;2.95;;;15.70;99.90;;;;;;5015925;28;20436;-76
2022/11/07 12:52:45;;;;;;;11.03;2.60;;;15.70;99.90;;;;;;5015968;28;20207;-76
2022/11/07 12:55:19;;;;;;;8.83;2.67;;;15.70;99.90;;;;;;5015868;28;20203;-78
2022/11/07 12:57:49;;;;;;;10.70;2.60;;;15.90;99.90;;;;;;5016153;28;20210;-76
2022/11/07 13:00:19;;;;;;;9.17;2.43;;;15.80;99.90;;;;;;5015562;28;20580;-77
2022/11/07 13:03:03;;;;;;;13.83;2.27;;;15.90;99.90;;;;;;5016181;28;20214;-77
2022/11/07 13:05:40;;;;;;;8.50;2.33;;;16.00;99.90;;;;;;5015640;28;20211;-81